Time;durP1;ratioP1;P1;durP2;ratioP2;P2;SDS_P1;SDS_P2;PMS_P1;PMS_P2;Temp;Humidity;BMP_temperature;BMP_pressure;BME280_temperature;BME280_humidity;BME280_pressure;Samples;Min_cycle;Max_cycle;Signal;HPM_P1;HPM_P2
2023/07/07 00:00:04;;;;;;;;;9.67;9.67;;;;;25.76;50.25;100655.13;146619;603;47012;-64
2023/07/07 00:02:56;;;;;;;;;9.00;8.00;;;;;25.69;50.65;100654.31;146624;569;47031;-65
2023/07/07 00:05:51;;;;;;;;;10.00;9.00;;;;;25.71;50.48;100660.50;146619;589;46012;-66
2023/07/07 00:09:03;;;;;;;;;9.67;8.67;;;;;25.69;50.47;100656.09;146622;563;47011;-67
2023/07/07 00:11:59;;;;;;;;;9.33;8.00;;;;;25.68;50.47;100659.66;146616;604;46016;-67
2023/07/07 00:14:54;;;;;;;;;9.33;9.00;;;;;25.65;51.01;100652.59;146623;665;46030;-67
2023/07/07 00:17:50;;;;;;;;;8.67;8.00;;;;;25.61;50.80;100660.63;146619;673;46017;-64
2023/07/07 00:20:48;;;;;;;;;9.00;8.00;;;;;25.56;51.23;100658.91;146620;617;46020;-65
2023/07/07 00:23:43;;;;;;;;;7.67;7.33;;;;;25.54;51.13;100654.50;146619;653;46016;-65
2023/07/07 00:26:48;;;;;;;;;10.00;10.00;;;;;25.49;50.52;100654.56;146624;609;46010;-65
2023/07/07 00:29:43;;;;;;;;;9.67;9.67;;;;;25.49;50.92;100648.38;146616;628;46016;-64
2023/07/07 00:32:38;;;;;;;;;10.33;8.00;;;;;25.50;50.91;100639.50;146620;613;47010;-64
2023/07/07 00:35:34;;;;;;;;;10.33;8.00;;;;;25.48;51.29;100639.53;146618;645;46016;-65
2023/07/07 00:38:29;;;;;;;;;8.00;7.00;;;;;25.50;51.11;100643.03;146625;589;46010;-67
2023/07/07 00:41:33;;;;;;;;;9.33;9.00;;;;;25.58;50.84;100640.31;146617;575;47012;-68
2023/07/07 00:44:34;;;;;;;;;12.33;11.33;;;;;25.61;50.38;100640.28;146623;563;46010;-66
2023/07/07 00:47:33;;;;;;;;;10.00;9.00;;;;;25.58;50.59;100642.97;146618;604;46016;-67
2023/07/07 00:50:30;;;;;;;;;9.33;8.33;;;;;25.53;51.02;100642.12;146625;634;46020;-67
2023/07/07 00:53:26;;;;;;;;;9.00;9.00;;;;;25.49;51.19;100643.94;146620;577;46017;-64
2023/07/07 00:56:32;;;;;;;;;9.33;9.00;;;;;25.47;50.58;100645.72;146622;601;46028;-65
2023/07/07 00:59:48;;;;;;;;;12.00;10.67;;;;;24.09;50.02;100405.78;146621;577;46013;-65
2023/07/07 01:02:51;;;;;;;;;10.33;10.00;;;;;25.49;51.24;100645.72;146625;653;46010;-65
2023/07/07 01:06:16;;;;;;;;;;;;;;;;;;;;;
2023/07/07 01:09:11;;;;;;;;;9.00;8.00;;;;;25.41;51.60;100656.41;146624;696;46029;-68
2023/07/07 01:12:11;;;;;;;;;4.75;4.00;;;;;25.32;52.25;100649.41;146619;581;46016;-66
2023/07/07 01:15:07;;;;;;;;;9.25;9.25;;;;;25.24;52.26;100650.41;146621;580;46021;-68
2023/07/07 01:18:32;;;;;;;;;11.33;10.00;;;;;25.20;51.52;100657.50;146618;582;46016;-67
2023/07/07 01:22:07;;;;;;;;;9.25;9.25;;;;;25.15;51.45;100651.38;146620;572;46028;-69
2023/07/07 01:25:55;;;;;;;;;11.67;10.33;;;;;25.10;52.24;100653.16;146615;580;46022;-71
2023/07/07 01:29:16;;;;;;;;;10.00;9.00;;;;;25.02;52.33;100652.38;146619;654;46022;-68
2023/07/07 01:32:38;;;;;;;;;10.75;9.50;;;;;25.01;53.24;100664.72;146618;672;46016;-68
2023/07/07 01:35:39;;;;;;;;;13.50;10.50;;;;;25.00;53.75;100648.84;146619;696;46020;-69
2023/07/07 01:38:53;;;;;;;;;13.00;11.00;;;;;22.53;52.36;100227.84;146616;572;46014;-68
2023/07/07 01:42:30;;;;;;;;;11.67;9.33;;;;;25.00;52.61;100640.87;146623;619;46014;-66
2023/07/07 01:46:01;;;;;;;;;12.00;10.33;;;;;24.12;51.80;100490.50;146620;586;47012;-65
2023/07/07 01:49:35;;;;;;;;;8.33;8.33;;;;;24.18;51.72;100479.00;146624;723;46020;-64
2023/07/07 01:53:08;;;;;;;;;12.00;10.25;;;;;23.83;52.13;100397.16;146617;656;47012;-66
2023/07/07 01:56:16;;;;;;;;;;;;;;;;;;;;;
2023/07/07 01:59:32;;;;;;;;;9.25;8.25;;;;;25.26;52.30;100652.12;146617;685;46025;-70
2023/07/07 02:02:38;;;;;;;;;11.67;9.67;;;;;25.24;52.64;100658.38;146625;579;46010;-67
2023/07/07 02:05:44;;;;;;;;;11.75;10.00;;;;;25.24;53.21;100650.41;146619;575;46014;-66
2023/07/07 02:08:46;;;;;;;;;9.67;8.67;;;;;25.24;53.43;100650.41;146621;590;46021;-67
2023/07/07 02:11:43;;;;;;;;;9.33;9.00;;;;;25.23;53.60;100648.62;146619;596;46016;-66
2023/07/07 02:14:43;;;;;;;;;10.33;9.00;;;;;25.25;53.72;100642.44;146626;636;46010;-67
2023/07/07 02:17:38;;;;;;;;;11.67;10.67;;;;;25.27;53.09;100643.31;146620;631;47014;-67
2023/07/07 02:20:35;;;;;;;;;12.00;10.25;;;;;25.29;53.01;100644.16;146620;618;46010;-66
2023/07/07 02:23:37;;;;;;;;;9.67;8.33;;;;;25.32;53.14;100643.25;146620;564;46916;-68
2023/07/07 02:26:36;;;;;;;;;13.67;10.33;;;;;25.38;53.17;100644.94;146622;657;46020;-69
2023/07/07 02:29:44;;;;;;;;;9.00;8.33;;;;;25.39;52.54;100647.59;146615;570;46017;-69
2023/07/07 02:32:39;;;;;;;;;8.67;7.00;;;;;25.38;52.76;100648.47;146623;632;46020;-68
2023/07/07 02:35:32;;;;;;;;;10.00;10.00;;;;;25.39;52.87;100649.34;146617;569;47012;-66
2023/07/07 02:38:24;;;;;;;;;11.25;9.25;;;;;25.37;52.70;100644.09;146618;657;47021;-67
2023/07/07 02:41:28;;;;;;;;;10.75;8.75;;;;;25.37;52.15;100645.84;146616;563;47016;-67
2023/07/07 02:44:26;;;;;;;;;11.33;11.33;;;;;25.34;52.34;100634.38;146625;704;46010;-67
2023/07/07 02:47:27;;;;;;;;;10.67;10.67;;;;;25.35;51.73;100644.09;146617;594;47012;-67
2023/07/07 02:50:28;;;;;;;;;11.25;11.00;;;;;25.40;53.14;100645.81;146622;640;46020;-67
2023/07/07 02:53:11;;;;;;;;;13.33;13.00;;;;;25.44;52.87;100643.09;146710;569;46014;-66
2023/07/07 02:56:13;;;;;;;;;15.00;12.00;;;;;25.51;52.18;100649.22;146620;623;46013;-65
2023/07/07 02:59:05;;;;;;;;;10.75;10.25;;;;;25.61;52.29;100655.31;146615;656;46020;-67
2023/07/07 03:02:00;;;;;;;;;12.00;9.00;;;;;25.62;52.32;100655.31;146612;610;46016;-66
2023/07/07 03:05:02;;;;;;;;;10.00;10.00;;;;;25.60;52.13;100654.44;146623;598;46010;-65
2023/07/07 03:07:54;;;;;;;;;14.50;12.25;;;;;25.55;52.16;100650.97;146611;566;46016;-66
2023/07/07 03:10:49;;;;;;;;;13.00;11.67;;;;;25.59;52.58;100655.34;146615;626;47011;-67
2023/07/07 03:13:56;;;;;;;;;14.50;11.50;;;;;25.56;51.95;100650.94;146610;571;47016;-66
2023/07/07 03:16:51;;;;;;;;;11.67;11.67;;;;;25.55;52.42;100650.97;146619;691;46021;-67
2023/07/07 03:19:58;;;;;;;;;11.00;11.00;;;;;25.56;52.24;100658.03;146608;609;47014;-66
2023/07/07 03:23:01;;;;;;;;;16.67;14.00;;;;;25.51;52.64;100643.91;146618;631;46020;-65
2023/07/07 03:25:56;;;;;;;;;13.33;11.00;;;;;25.45;52.97;100658.16;146613;662;47014;-66
2023/07/07 03:28:56;;;;;;;;;10.67;9.00;;;;;25.40;52.94;100659.09;146617;573;46020;-67
2023/07/07 03:31:49;;;;;;;;;11.00;10.00;;;;;25.33;53.20;100666.25;146614;569;47014;-65
2023/07/07 03:34:50;;;;;;;;;10.00;9.00;;;;;25.31;52.81;100663.59;146612;569;47021;-66
2023/07/07 03:37:50;;;;;;;;;10.67;10.67;;;;;25.31;53.62;100668.03;146616;666;46016;-67
2023/07/07 03:40:51;;;;;;;;;10.33;10.33;;;;;25.28;53.50;100658.31;146614;603;47010;-66
2023/07/07 03:43:44;;;;;;;;;9.67;9.00;;;;;25.22;54.04;100652.19;146610;574;47012;-63
2023/07/07 03:46:45;;;;;;;;;13.00;10.00;;;;;25.27;54.26;100661.88;146619;628;47020;-65
2023/07/07 03:49:50;;;;;;;;;14.00;13.00;;;;;24.24;53.80;100504.53;146611;625;46014;-67
2023/07/07 03:52:51;;;;;;;;;11.75;10.75;;;;;25.25;54.49;100660.13;146606;640;47012;-65
2023/07/07 03:55:43;;;;;;;;;13.75;13.75;;;;;25.26;54.95;100670.72;146601;624;47014;-66
2023/07/07 03:58:39;;;;;;;;;11.67;10.67;;;;;25.27;54.98;100666.31;146608;589;47010;-65
2023/07/07 04:01:31;;;;;;;;;13.00;11.67;;;;;25.28;55.10;100671.59;146604;633;47916;-66
2023/07/07 04:04:28;;;;;;;;;11.00;9.67;;;;;25.27;55.62;100667.19;146612;681;46020;-66
2023/07/07 04:07:23;;;;;;;;;11.00;10.00;;;;;25.26;55.20;100670.72;146612;580;46016;-65
2023/07/07 04:10:18;;;;;;;;;7.25;6.25;;;;;25.29;55.56;100673.34;146611;650;46029;-65
2023/07/07 04:13:28;;;;;;;;;9.33;8.33;;;;;25.40;54.32;100667.06;146611;594;46025;-66
2023/07/07 04:16:31;;;;;;;;;11.50;8.75;;;;;25.60;54.32;100677.44;146614;565;47010;-67
2023/07/07 04:19:28;;;;;;;;;13.00;10.67;;;;;25.80;54.83;100673.69;146608;566;47023;-67
2023/07/07 04:22:33;;;;;;;;;10.67;9.00;;;;;25.99;54.58;100674.34;146608;688;47010;-67
2023/07/07 04:25:41;;;;;;;;;11.33;11.33;;;;;26.19;53.92;100686.50;146611;614;46017;-68
2023/07/07 04:28:39;;;;;;;;;12.00;11.00;;;;;26.36;53.44;100678.28;146608;617;46010;-68
2023/07/07 04:31:35;;;;;;;;;9.33;9.00;;;;;26.48;53.19;100675.47;146605;659;47016;-67
2023/07/07 04:34:34;;;;;;;;;9.00;8.00;;;;;26.62;52.93;100684.13;146615;581;47010;-68
2023/07/07 04:37:32;;;;;;;;;11.00;10.00;;;;;26.74;52.87;100671.53;146611;634;47012;-68
2023/07/07 04:40:26;;;;;;;;;15.00;14.25;;;;;26.92;53.04;100680.09;146608;685;46010;-67
2023/07/07 04:43:21;;;;;;;;;12.00;12.00;;;;;27.12;52.02;100685.06;146606;620;47016;-67
2023/07/07 04:46:19;;;;;;;;;14.00;14.00;;;;;27.33;52.13;100680.31;146608;611;46020;-69
2023/07/07 04:49:12;;;;;;;;;13.67;12.33;;;;;27.54;51.59;100679.91;146603;685;46012;-70
2023/07/07 04:52:11;;;;;;;;;15.25;14.00;;;;;27.70;49.91;100682.25;146603;666;47010;-71
2023/07/07 04:55:03;;;;;;;;;16.00;13.50;;;;;27.85;50.23;100684.63;146604;673;47013;-69
2023/07/07 04:57:59;;;;;;;;;13.75;13.75;;;;;28.04;50.12;100686.00;146607;672;46032;-70
2023/07/07 05:00:56;;;;;;;;;16.50;15.75;;;;;28.26;49.96;100690.87;146605;681;46918;-70
2023/07/07 05:04:05;;;;;;;;;21.25;16.50;;;;;28.46;48.91;100696.66;146608;580;47020;-71
2023/07/07 05:07:02;;;;;;;;;17.75;16.25;;;;;28.61;48.30;100695.44;146602;708;47012;-67
2023/07/07 05:09:54;;;;;;;;;14.25;14.25;;;;;28.70;48.24;100694.34;146604;607;47012;-66
2023/07/07 05:13:01;;;;;;;;;21.50;16.75;;;;;28.83;48.16;100698.44;146604;571;47012;-66
2023/07/07 05:15:56;;;;;;;;;17.75;16.00;;;;;28.94;48.63;100691.06;146607;581;46021;-71
2023/07/07 05:19:00;;;;;;;;;18.50;17.00;;;;;29.12;47.58;100689.72;146605;574;46012;-70
2023/07/07 05:21:59;;;;;;;;;15.25;14.75;;;;;29.26;47.75;100692.06;146607;583;47012;-70
2023/07/07 05:24:51;;;;;;;;;17.00;14.00;;;;;29.36;47.33;100693.56;146606;634;46017;-69
2023/07/07 05:27:47;;;;;;;;;9.00;9.00;;;;;29.49;47.19;100702.09;146607;582;47010;-70
2023/07/07 05:30:39;;;;;;;;;19.25;13.50;;;;;29.65;46.57;100695.44;146611;588;46016;-69
2023/07/07 05:33:44;;;;;;;;;16.50;13.75;;;;;29.77;46.93;100707.59;146609;622;46020;-68
2023/07/07 05:36:51;;;;;;;;;14.25;13.50;;;;;29.89;46.73;100711.72;146606;624;46033;-68
2023/07/07 05:39:54;;;;;;;;;15.00;12.33;;;;;30.05;46.79;100704.13;146608;650;46020;-68
2023/07/07 05:42:45;;;;;;;;;17.25;16.50;;;;;30.21;46.09;100702.75;146604;687;46028;-68
2023/07/07 05:45:47;;;;;;;;;13.75;13.75;;;;;30.37;45.96;100700.50;146606;628;47011;-67
2023/07/07 05:48:39;;;;;;;;;17.25;17.25;;;;;30.44;45.22;100699.41;146600;626;47016;-67
2023/07/07 05:51:46;;;;;;;;;16.00;15.75;;;;;30.50;45.93;100706.34;146610;692;46020;-67
2023/07/07 05:54:51;;;;;;;;;;;;;;;;;;;;;
2023/07/07 05:57:45;;;;;;;;;15.00;13.00;;;;;30.65;45.50;100711.19;146605;633;47010;-72
2023/07/07 06:00:45;;;;;;;;;17.50;15.25;;;;;30.68;46.03;100711.09;146600;695;48013;-67
2023/07/07 06:03:46;;;;;;;;;14.75;13.75;;;;;30.73;46.28;100714.53;146606;616;47010;-65
2023/07/07 06:06:39;;;;;;;;;13.33;12.67;;;;;30.82;47.15;100719.59;146601;733;49012;-65
2023/07/07 06:09:57;;;;;;;;;12.67;11.33;;;;;30.97;45.57;100728.94;146609;680;46021;-67
2023/07/07 06:13:23;;;;;;;;;11.33;11.00;;;;;30.94;44.49;100709.44;146604;602;47012;-67
2023/07/07 06:16:19;;;;;;;;;11.75;11.00;;;;;30.91;45.58;100714.87;146605;622;47010;-66
2023/07/07 06:19:33;;;;;;;;;13.50;11.75;;;;;31.02;45.43;100708.22;146602;616;46016;-66
2023/07/07 06:22:33;;;;;;;;;13.75;11.75;;;;;31.16;46.38;100712.25;146607;583;47021;-68
2023/07/07 06:25:35;;;;;;;;;13.25;12.50;;;;;31.29;44.82;100703.72;146605;595;46016;-66
2023/07/07 06:28:28;;;;;;;;;14.25;13.50;;;;;31.46;45.80;100704.97;146605;636;46010;-66
2023/07/07 06:31:22;;;;;;;;;11.75;11.75;;;;;31.60;46.82;100704.47;146603;689;47012;-65
2023/07/07 06:34:27;;;;;;;;;11.75;11.75;;;;;31.64;46.98;100704.31;146607;679;46020;-65
2023/07/07 06:37:25;;;;;;;;;12.50;11.25;;;;;31.54;48.01;100718.97;146602;654;48013;-67
2023/07/07 06:40:34;;;;;;;;;14.00;12.00;;;;;31.42;47.90;100719.41;146606;567;47010;-67
2023/07/07 06:43:29;;;;;;;;;14.00;12.25;;;;;31.36;48.19;100715.13;146602;570;46918;-67
2023/07/07 06:46:23;;;;;;;;;12.75;11.75;;;;;30.42;48.63;100564.78;146602;673;50010;-63
2023/07/07 06:49:23;;;;;;;;;14.25;12.50;;;;;31.31;49.72;100719.75;146604;572;46918;-67
2023/07/07 06:52:24;;;;;;;;;15.25;14.00;;;;;31.35;49.64;100724.13;146607;682;46020;-68
2023/07/07 06:55:22;;;;;;;;;14.75;14.50;;;;;31.32;48.46;100732.22;146604;581;46919;-68
2023/07/07 06:58:38;;;;;;;;;;;;;;;;;;;;;
2023/07/07 07:01:43;;;;;;;;;14.25;12.50;;;;;31.21;48.51;100734.38;146606;564;46033;-69
2023/07/07 07:04:35;;;;;;;;;14.25;13.00;;;;;31.14;47.93;100731.03;146606;701;46010;-71
2023/07/07 07:07:32;;;;;;;;;11.00;11.00;;;;;31.09;48.86;100735.66;146603;576;48012;-69
2023/07/07 07:10:34;;;;;;;;;12.75;12.00;;;;;31.08;48.13;100738.41;146610;566;46010;-69
2023/07/07 07:13:26;;;;;;;;;15.25;11.25;;;;;31.09;47.91;100743.69;146606;657;46918;-70
2023/07/07 07:16:25;;;;;;;;;16.75;14.75;;;;;31.17;48.26;100752.37;146607;639;46020;-69
2023/07/07 07:19:26;;;;;;;;;13.00;12.50;;;;;31.26;48.69;100744.00;146603;638;46014;-69
2023/07/07 07:22:19;;;;;;;;;11.50;10.50;;;;;31.30;48.21;100750.13;146607;564;47010;-69
2023/07/07 07:25:14;;;;;;;;;12.50;10.50;;;;;31.31;47.75;100741.19;146604;588;47012;-69
2023/07/07 07:28:08;;;;;;;;;12.67;12.00;;;;;31.25;48.34;100738.72;146611;671;46010;-67
2023/07/07 07:31:00;;;;;;;;;15.50;13.00;;;;;31.34;47.78;100740.22;146606;584;47919;-70
2023/07/07 07:34:10;;;;;;;;;;;;;;;;;;;;;
2023/07/07 07:37:08;;;;;;;;;9.75;8.50;;;;;31.56;47.21;100740.34;146603;578;46017;-69
2023/07/07 07:40:09;;;;;;;;;13.33;11.67;;;;;31.69;46.20;100744.34;146610;635;48020;-69
2023/07/07 07:43:05;;;;;;;;;9.00;8.33;;;;;31.81;44.55;100740.34;146607;685;46014;-67
2023/07/07 07:46:01;;;;;;;;;9.00;9.00;;;;;31.80;43.46;100736.78;146615;597;46011;-69
2023/07/07 07:49:02;;;;;;;;;11.75;11.00;;;;;31.75;44.03;100746.81;146613;678;46030;-68
2023/07/07 07:52:06;;;;;;;;;15.67;12.00;;;;;31.81;43.94;100743.00;146606;616;47010;-68
2023/07/07 07:55:14;;;;;;;;;11.00;11.00;;;;;31.94;45.24;100747.91;146603;626;47012;-69
2023/07/07 07:58:19;;;;;;;;;13.25;12.25;;;;;29.92;45.17;100369.47;146606;692;47013;-69
2023/07/07 08:01:27;;;;;;;;;13.25;11.50;;;;;32.36;44.01;100746.34;146604;686;46016;-68
2023/07/07 08:04:22;;;;;;;;;12.00;12.00;;;;;32.61;43.04;100747.16;146602;569;47010;-69
2023/07/07 08:07:17;;;;;;;;;13.00;11.67;;;;;32.80;42.20;100752.66;146603;615;47012;-69
2023/07/07 08:10:14;;;;;;;;;13.75;12.75;;;;;32.98;42.65;100751.06;146607;621;47010;-68
2023/07/07 08:13:18;;;;;;;;;9.25;9.00;;;;;33.20;42.59;100747.47;146605;697;46016;-67
2023/07/07 08:16:20;;;;;;;;;13.00;13.00;;;;;33.38;42.10;100746.69;146616;603;47010;-69
2023/07/07 08:19:27;;;;;;;;;9.33;9.33;;;;;33.55;41.86;100754.94;146604;606;47016;-68
2023/07/07 08:22:25;;;;;;;;;12.25;11.00;;;;;33.70;40.86;100757.88;146618;569;46020;-67
2023/07/07 08:25:18;;;;;;;;;12.33;10.00;;;;;33.78;41.09;100759.28;146609;642;46016;-68
2023/07/07 08:28:10;;;;;;;;;11.00;11.00;;;;;33.91;40.85;100766.81;146608;576;46020;-68
2023/07/07 08:31:11;;;;;;;;;12.75;12.25;;;;;34.06;41.33;100760.75;146605;741;46039;-65
2023/07/07 08:34:06;;;;;;;;;12.25;11.25;;;;;33.37;41.67;100621.31;146603;563;47010;-70
2023/07/07 08:36:59;;;;;;;;;13.25;10.50;;;;;34.27;39.61;100766.97;146606;583;46044;-66
2023/07/07 08:39:53;;;;;;;;;13.00;12.75;;;;;34.25;40.83;100764.34;146608;687;46020;-66
2023/07/07 08:42:52;;;;;;;;;16.00;13.50;;;;;34.26;42.21;100767.91;146605;587;46012;-66
2023/07/07 08:46:04;;;;;;;;;13.50;11.50;;;;;34.28;40.01;100763.31;146608;641;46020;-66
2023/07/07 08:49:32;;;;;;;;;11.50;11.50;;;;;33.11;41.48;100574.09;146604;643;46012;-65
2023/07/07 08:53:00;;;;;;;;;9.00;9.00;;;;;34.41;40.63;100760.94;146606;695;47041;-65
2023/07/07 08:56:46;;;;;;;;;7.50;7.00;;;;;33.26;40.34;100556.44;146610;655;47016;-65
2023/07/07 09:00:24;;;;;;;;;12.25;12.00;;;;;33.42;40.85;100551.22;146611;564;47010;-67
2023/07/07 09:03:53;;;;;;;;;14.25;12.00;;;;;33.60;40.09;100550.38;146600;626;47012;-65
2023/07/07 09:07:35;;;;;;;;;12.00;10.75;;;;;34.69;40.18;100741.66;146603;573;47010;-65
2023/07/07 09:11:04;;;;;;;;;9.25;8.50;;;;;33.45;38.66;100546.56;146601;638;47012;-65
2023/07/07 09:14:03;;;;;;;;;9.50;9.50;;;;;34.51;39.15;100743.38;146617;612;46021;-65
2023/07/07 09:17:11;;;;;;;;;15.25;12.25;;;;;34.60;39.82;100742.97;146612;575;46916;-65
2023/07/07 09:20:16;;;;;;;;;11.25;10.50;;;;;34.79;40.10;100744.75;146607;578;47010;-67
2023/07/07 09:23:25;;;;;;;;;12.00;12.00;;;;;35.06;38.02;100750.62;146605;625;47012;-65
2023/07/07 09:26:35;;;;;;;;;11.25;10.75;;;;;35.23;40.00;100737.16;146609;729;46020;-67
2023/07/07 09:29:34;;;;;;;;;13.00;9.00;;;;;35.30;38.37;100737.75;146603;637;46917;-67
2023/07/07 09:32:30;;;;;;;;;11.67;11.00;;;;;35.30;37.59;100743.13;146616;625;46020;-66
2023/07/07 09:35:25;;;;;;;;;13.25;11.50;;;;;35.14;38.78;100748.41;146603;595;46017;-66
2023/07/07 09:39:13;;;;;;;;;11.00;10.25;;;;;33.95;40.03;100551.38;146603;601;47010;-65
2023/07/07 09:42:40;;;;;;;;;12.33;10.00;;;;;35.25;37.93;100751.44;146607;640;46017;-66
2023/07/07 09:46:07;;;;;;;;;10.67;9.33;;;;;35.37;39.08;100749.94;146611;626;46020;-66
2023/07/07 09:49:32;;;;;;;;;12.33;10.00;;;;;35.44;38.42;100745.97;146611;590;47012;-66
2023/07/07 09:53:00;;;;;;;;;11.67;10.33;;;;;35.57;38.75;100755.19;146607;725;46020;-67
2023/07/07 09:55:58;;;;;;;;;10.50;9.25;;;;;35.65;35.61;100751.25;146602;577;47016;-66
2023/07/07 09:59:06;;;;;;;;;10.67;9.00;;;;;35.67;36.11;100742.09;146614;613;47010;-65
2023/07/07 10:01:59;;;;;;;;;10.67;9.67;;;;;35.60;36.32;100751.47;146611;569;47016;-66
2023/07/07 10:05:01;;;;;;;;;7.00;6.00;;;;;35.59;34.63;100749.72;146614;622;47010;-66
2023/07/07 10:07:54;;;;;;;;;7.33;7.33;;;;;35.71;32.11;100743.69;146611;613;47916;-65
2023/07/07 10:10:49;;;;;;;;;9.00;7.67;;;;;35.81;31.72;100733.28;146604;576;46010;-67
2023/07/07 10:13:41;;;;;;;;;7.00;7.00;;;;;35.92;32.20;100735.37;146612;603;46014;-66
2023/07/07 10:17:13;;;;;;;;;7.33;7.33;;;;;35.70;33.53;100676.31;146613;639;47010;-66
2023/07/07 10:20:11;;;;;;;;;13.00;11.00;;;;;36.21;36.93;100732.00;146609;611;47013;-67
2023/07/07 10:23:23;;;;;;;;;8.67;8.67;;;;;36.27;36.99;100736.19;146607;591;47020;-66
2023/07/07 10:26:18;;;;;;;;;11.50;11.50;;;;;36.14;36.29;100730.59;146610;614;47012;-66
2023/07/07 10:29:27;;;;;;;;;11.50;10.75;;;;;35.92;36.45;100725.47;146609;581;46020;-66
2023/07/07 10:32:35;;;;;;;;;15.00;12.75;;;;;35.77;37.71;100726.31;146603;594;48016;-67
2023/07/07 10:35:36;;;;;;;;;9.25;7.75;;;;;35.76;35.92;100714.63;146609;709;46012;-68
2023/07/07 10:38:54;;;;;;;;;9.25;9.00;;;;;34.57;36.38;100519.63;146608;609;47012;-66
2023/07/07 10:41:52;;;;;;;;;6.33;6.33;;;;;35.61;33.39;100710.06;146606;569;47011;-67
2023/07/07 10:45:28;;;;;;;;;10.33;8.33;;;;;33.63;36.57;100361.19;146611;569;47012;-66
2023/07/07 10:48:21;;;;;;;;;10.75;10.25;;;;;35.70;34.75;100709.56;146615;609;47020;-66
2023/07/07 10:52:02;;;;;;;;;;;;;;;;;;;;;
2023/07/07 10:55:44;;;;;;;;;10.67;8.00;;;;;34.40;33.09;100447.81;146614;564;46020;-67
2023/07/07 10:59:24;;;;;;;;;8.33;7.67;;;;;35.94;36.77;100680.38;146611;570;47016;-67
2023/07/07 11:02:57;;;;;;;;;7.00;7.00;;;;;36.22;36.34;100674.34;146616;590;46020;-66
2023/07/07 11:06:19;;;;;;;;;11.25;6.75;;;;;36.38;35.86;100673.47;146610;693;46034;-67
2023/07/07 11:09:49;;;;;;;;;8.25;8.00;;;;;35.29;36.14;100488.84;146614;724;46020;-66
2023/07/07 11:13:32;;;;;;;;;6.00;5.67;;;;;36.45;33.49;100658.63;146614;564;46012;-67
2023/07/07 11:17:15;;;;;;;;;7.25;6.75;;;;;35.45;34.34;100448.41;146614;674;46020;-66
2023/07/07 11:20:56;;;;;;;;;7.00;6.00;;;;;35.80;34.09;100459.94;146605;620;48012;-65
2023/07/07 11:24:42;;;;;;;;;6.00;6.00;;;;;35.29;35.36;100342.44;146618;603;46020;-68
2023/07/07 11:28:07;;;;;;;;;5.75;5.00;;;;;37.16;32.58;100637.31;146604;625;48014;-68
2023/07/07 11:32:03;;;;;;;;;5.75;5.75;;;;;37.15;32.65;100643.72;146614;628;46010;-67
2023/07/07 11:35:34;;;;;;;;;9.00;8.00;;;;;37.11;30.87;100639.47;146610;593;47012;-69
2023/07/07 11:39:02;;;;;;;;;7.75;7.75;;;;;35.99;33.99;100453.47;146615;702;47010;-67
2023/07/07 11:42:42;;;;;;;;;6.00;6.00;;;;;36.92;35.25;100652.31;146610;573;46017;-66
2023/07/07 11:45:59;;;;;;;;;8.00;6.75;;;;;36.73;32.69;100664.22;146613;681;46020;-66
2023/07/07 11:49:40;;;;;;;;;7.75;7.00;;;;;36.37;35.26;100652.81;146611;691;46016;-65
2023/07/07 11:53:25;;;;;;;;;9.75;9.00;;;;;36.10;35.64;100645.34;146608;678;46010;-66
2023/07/07 11:56:53;;;;;;;;;8.25;8.25;;;;;36.10;35.00;100637.22;146610;579;46017;-67
2023/07/07 12:00:22;;;;;;;;;9.00;8.00;;;;;36.07;34.68;100621.22;146619;589;46020;-67
2023/07/07 12:04:00;;;;;;;;;7.25;7.25;;;;;36.18;35.03;100634.13;146607;625;47013;-65
2023/07/07 12:07:38;;;;;;;;;9.25;7.75;;;;;35.10;33.16;100420.75;146615;695;46020;-65
2023/07/07 12:11:00;;;;;;;;;11.00;9.25;;;;;36.21;32.33;100625.84;146610;675;47048;-67
2023/07/07 12:14:44;;;;;;;;;8.75;7.75;;;;;34.55;36.06;100377.97;146616;566;46020;-67
2023/07/07 12:18:12;;;;;;;;;8.00;7.67;;;;;34.32;34.91;100360.31;146611;672;46017;-68
2023/07/07 12:21:46;;;;;;;;;7.33;7.33;;;;;35.81;33.40;100623.53;146615;611;47008;-66
2023/07/07 12:25:13;;;;;;;;;7.00;7.00;;;;;35.64;35.44;100631.69;146612;690;46016;-65
2023/07/07 12:28:11;;;;;;;;;7.00;5.67;;;;;35.55;34.64;100629.50;146608;602;47010;-65
2023/07/07 12:31:20;;;;;;;;;9.67;8.00;;;;;35.52;34.25;100626.94;146611;566;46016;-66
2023/07/07 12:34:44;;;;;;;;;9.75;8.75;;;;;35.54;34.96;100616.94;146614;685;47010;-66
2023/07/07 12:38:06;;;;;;;;;8.33;8.33;;;;;35.51;33.20;100609.00;146612;644;47016;-65
2023/07/07 12:41:30;;;;;;;;;9.50;8.00;;;;;34.15;32.73;100397.06;146617;582;46010;-66
2023/07/07 12:44:23;;;;;;;;;11.00;9.50;;;;;35.36;33.35;100605.28;146611;663;46012;-65
2023/07/07 12:48:14;;;;;;;;;;;;;;;;;;;;;
2023/07/07 12:51:27;;;;;;;;;8.00;8.00;;;;;34.48;33.35;100413.25;146611;577;46016;-65
2023/07/07 12:54:44;;;;;;;;;7.67;7.00;;;;;35.61;34.81;100596.81;146617;590;46021;-66
2023/07/07 12:58:35;;;;;;;;;6.33;6.33;;;;;34.39;32.32;100397.59;146609;633;46012;-65
2023/07/07 13:01:56;;;;;;;;;10.00;8.33;;;;;35.36;33.07;100594.50;146605;595;47010;-66
2023/07/07 13:05:04;;;;;;;;;7.67;7.00;;;;;35.34;33.83;100591.91;146612;622;47916;-66
2023/07/07 13:08:02;;;;;;;;;9.67;8.00;;;;;35.31;32.49;100591.22;146706;570;46022;-66
2023/07/07 13:11:03;;;;;;;;;8.67;7.00;;;;;35.28;33.32;100586.00;146618;673;47016;-65
2023/07/07 13:13:55;;;;;;;;;7.33;7.00;;;;;35.28;35.79;100594.94;146620;661;47020;-68
2023/07/07 13:17:02;;;;;;;;;9.00;7.00;;;;;35.28;34.70;100586.00;146618;608;46015;-65
2023/07/07 13:20:37;;;;;;;;;7.00;7.00;;;;;35.20;34.52;100586.37;146620;577;46020;-65
2023/07/07 13:24:10;;;;;;;;;8.67;8.67;;;;;35.12;33.60;100594.03;146619;661;47013;-67
2023/07/07 13:27:38;;;;;;;;;10.00;8.33;;;;;35.00;34.09;100583.88;146623;580;46012;-66
2023/07/07 13:31:00;;;;;;;;;;;;;;;;;;;;;
2023/07/07 13:33:59;;;;;;;;;9.75;8.75;;;;;35.07;33.78;100588.00;146623;586;47012;-71
2023/07/07 13:37:18;;;;;;;;;7.33;7.33;;;;;35.08;33.28;100590.63;146617;569;46030;-70
2023/07/07 13:40:42;;;;;;;;;8.50;7.00;;;;;35.02;34.10;100587.31;146624;659;46020;-71
2023/07/07 13:43:56;;;;;;;;;7.00;7.00;;;;;34.96;35.42;100588.53;146612;734;47916;-69
2023/07/07 13:47:15;;;;;;;;;9.75;9.25;;;;;34.99;35.92;100584.81;146622;713;46021;-69
2023/07/07 13:50:44;;;;;;;;;9.50;8.00;;;;;35.04;34.17;100580.06;146616;664;47014;-70
2023/07/07 13:53:42;;;;;;;;;7.33;7.33;;;;;35.13;33.58;100576.91;146622;573;46021;-67
2023/07/07 13:57:09;;;;;;;;;8.33;7.33;;;;;34.81;35.07;100519.31;146613;668;47014;-66
2023/07/07 14:00:09;;;;;;;;;10.00;9.33;;;;;35.16;32.25;100585.69;146619;680;46020;-66
2023/07/07 14:03:06;;;;;;;;;9.00;8.00;;;;;35.20;32.92;100580.13;146618;623;46017;-67
2023/07/07 14:06:11;;;;;;;;;9.33;8.00;;;;;35.25;33.45;100580.75;146626;583;45020;-66
2023/07/07 14:09:32;;;;;;;;;9.67;8.67;;;;;35.30;34.89;100586.78;146624;579;46012;-66
2023/07/07 14:12:45;;;;;;;;;8.33;8.33;;;;;35.33;35.26;100592.00;146628;626;47020;-66
2023/07/07 14:16:22;;;;;;;;;8.67;8.00;;;;;35.29;35.17;100585.87;146628;564;46015;-66
2023/07/07 14:19:39;;;;;;;;;9.00;8.67;;;;;34.32;35.88;100409.63;146631;705;47010;-66
2023/07/07 14:23:00;;;;;;;;;9.67;9.00;;;;;35.27;35.04;100566.25;146624;656;46016;-67
2023/07/07 14:26:27;;;;;;;;;;;;;;;;;;;;;
2023/07/07 14:29:40;;;;;;;;;8.33;8.00;;;;;35.19;34.79;100571.19;146626;606;46016;-67
2023/07/07 14:33:03;;;;;;;;;7.33;7.00;;;;;35.08;35.00;100554.69;146630;612;46021;-67
2023/07/07 14:36:02;;;;;;;;;9.00;8.00;;;;;35.10;34.03;100575.22;146626;598;47016;-67